メインページ
METAR-TAF:

METAR-TAF

空港 :

NWS Office

ポンペイ島, ミクロネシア

緯度: 06-58N, 経度: 158-13E, 海抜: 39m

現時点の気象観測

当レポートは57分前の15:51(UTC)に作成
無風
気温 24°C
湿度 100%
気圧 1008 hPa
視程: 24.1km
高度1800ftの雲は散在している
高度30000ftの千切れ雲あり

METAR: PTTP 171551Z 00000KT 15SM SCT018 BKN300 24/24 A2978 RMK SLP085 T02440237

時間: 03:48 (16:48 UTC)


TAF: 見つかりません

4,000以上の空港の気象観測と天気予報(METAR報とTAF報)

利用可能な観測所は地図上に黄色い丸と赤い丸で示す。

丸の上にカーソルを重ねると観測所名を参照できる。

次にクリックすると気象観測と天気予報を参照できる。

マップの切り替え:黒色「×」印の緑ボタンをクリックして拡大、「-」印の緑ボタンをクリックして縮小、緑色の三角印をクリックして隣りの地図に切り替え


METAR-TAF: